Cartagena de Indias, Colombia

8:21 PM COT en Noviembre 27, 2014 (GMT -0500)
Rafael Nunez | Change Station
CLOSE
Current Station
Aeropuerto
Location: Cartagena,
Altura: 39 ft
Estaciones meteorológicas cercanas

Alt 39 ft 10.45 °N, 75.52 °W | Updated 21 minutes ago

Scattered Clouds
Nubes dispersas
81 ° F
Sensación térmica 87 ° F
N
8
Viento Variable Viento desde Norte

Hoy
Alta -- | Baja -- ° F
--% Posibilidad de precipitaciones
Ayer
Alta -- | Baja -- ° F
Precip. -- pul
6:02 AM 5:37 PM
Creciente, 34% visible
Presión 29.81 pul
Visibilidad 6.2 Millas
Nubes Baja 1800 ft
Nubes dispersas 20000 ft
Índice de calor 87 ° F
Punto de rocío 77 ° F
Humedad 89%
Precipitaciones 0.00 pul
Espesor de la nieve No disponible.
UV 0 de una escala de 12
Polen No disponible.
Calidad del aire No disponible.
Flu Activity No disponible.
METAR SKCG 280100Z 01007KT 9999 FEW018 SCT200 27/25 A2979 METAR SKBQ 280100Z 02008KT 9999 SCT015 27/25 A2981

More Conditions Fewer Conditions

Presión 29.81 pul
Visibilidad 6.2 Millas
Nubes Baja 1800 ft
Nubes dispersas 20000 ft
Índice de calor 87 ° F
Punto de rocío 77 ° F
Humedad 89%
Precipitaciones 0.00 pul
Espesor de la nieve No disponible.
UV 0 de una escala de 12
Polen No disponible.
Calidad del aire No disponible.
Flu Activity No disponible.
METAR SKCG 280100Z 01007KT 9999 FEW018 SCT200 27/25 A2979 METAR SKBQ 280100Z 02008KT 9999 SCT015 27/25 A2981

More Conditions Fewer Conditions

10-Day Weather Forecast

Almanac

Astronomía

Nov. 27, 2014 Salida Puesta
Hora real
Crepúsculo civil
Crepúsculo náutico
Crepúsculo astronómico
Luna
Horas de luz
Horas de luz
Tomorrow will be .
, % of the Moon is Illuminated

Extremos de hoy

Máximos del país Bajas del país

Community

WunderPhotos

Upload Photos

1,774,148 ¡fotos cargadas!

WunderBlogs® & News

Nearby

Calidad del aire

  Calidad del aire Índice AQ Contaminante
Not available.

Grosos de nieve

Estación Profundido Altura

Actividad de terremotos

Ciudad Distance Mag. Tiempo y dato
Magnitud mínima muestra es 2,5.

Temperaturas de aguas costeras

Lugar Temperatura

Estaciones meteorológicas cercanas